createdAt,value
2023-12-02T00:00:30.922Z,0
2023-12-02T00:01:45.215Z,0
2023-12-02T00:02:59.509Z,0
2023-12-02T00:04:13.802Z,0
2023-12-02T00:05:28.097Z,0
2023-12-02T00:06:42.391Z,0
2023-12-02T00:07:56.684Z,0
2023-12-02T00:09:10.978Z,0
2023-12-02T00:10:25.272Z,0
2023-12-02T00:11:39.566Z,0
2023-12-02T00:12:53.859Z,0
2023-12-02T00:14:08.153Z,0
2023-12-02T00:15:22.447Z,0
2023-12-02T00:16:35.756Z,0
2023-12-02T00:17:50.050Z,0
2023-12-02T00:19:04.344Z,0
2023-12-02T00:20:18.638Z,0
2023-12-02T00:21:32.932Z,0
2023-12-02T00:22:47.225Z,0
2023-12-02T00:24:00.540Z,0
2023-12-02T00:25:14.834Z,0
2023-12-02T00:26:29.128Z,0
2023-12-02T00:27:43.421Z,0
2023-12-02T00:28:57.715Z,0
2023-12-02T00:30:12.009Z,0
2023-12-02T00:31:26.303Z,0
2023-12-02T00:32:40.596Z,0
2023-12-02T00:33:54.890Z,0
2023-12-02T00:35:09.184Z,0
2023-12-02T00:36:23.477Z,0
2023-12-02T00:37:37.771Z,0
2023-12-02T00:38:52.065Z,0
2023-12-02T00:40:05.375Z,0
2023-12-02T00:41:19.668Z,0
2023-12-02T00:42:33.962Z,0
2023-12-02T00:43:48.256Z,0
2023-12-02T00:45:02.550Z,0
2023-12-02T00:46:16.843Z,0
2023-12-02T00:47:31.137Z,0
2023-12-02T00:48:45.431Z,0
2023-12-02T00:49:59.724Z,0
2023-12-02T00:51:14.018Z,0
2023-12-02T00:52:28.312Z,0
2023-12-02T00:53:42.606Z,0
2023-12-02T00:54:56.899Z,0
2023-12-02T00:56:10.209Z,0
2023-12-02T00:57:24.503Z,0
2023-12-02T00:58:38.797Z,0
2023-12-02T00:59:53.090Z,0
2023-12-02T01:01:07.384Z,0
2023-12-02T01:02:21.678Z,0
2023-12-02T01:03:35.972Z,0
2023-12-02T01:04:50.265Z,0
2023-12-02T01:06:04.559Z,0
2023-12-02T01:07:18.853Z,0
2023-12-02T01:08:33.146Z,0
2023-12-02T01:09:47.440Z,0
2023-12-02T01:11:01.734Z,0
2023-12-02T01:12:15.043Z,0
2023-12-02T01:13:29.337Z,0
2023-12-02T01:14:43.631Z,0
2023-12-02T01:15:57.925Z,0
2023-12-02T01:17:12.218Z,0
2023-12-02T01:18:26.512Z,0
2023-12-02T01:19:40.806Z,0
2023-12-02T01:20:55.099Z,0
2023-12-02T01:22:09.393Z,0
2023-12-02T01:23:23.686Z,0
2023-12-02T01:24:37.980Z,0
2023-12-02T01:25:52.274Z,0
2023-12-02T01:27:06.568Z,0
2023-12-02T01:28:19.877Z,0
2023-12-02T01:29:34.171Z,0
2023-12-02T01:30:48.465Z,0
2023-12-02T01:32:02.758Z,0
2023-12-02T01:33:17.052Z,0
2023-12-02T01:34:31.346Z,0
2023-12-02T01:35:45.640Z,0
2023-12-02T01:36:59.933Z,0
2023-12-02T01:38:14.227Z,0
2023-12-02T01:39:28.520Z,0
2023-12-02T01:40:42.814Z,0
2023-12-02T01:41:57.108Z,0
2023-12-02T01:43:11.401Z,0
2023-12-02T01:44:24.711Z,0
2023-12-02T01:45:39.005Z,0
2023-12-02T01:46:53.299Z,0
2023-12-02T01:48:07.592Z,0
2023-12-02T01:49:21.886Z,0
2023-12-02T01:50:36.180Z,0
2023-12-02T01:51:50.473Z,0
2023-12-02T01:53:04.767Z,0
2023-12-02T01:54:19.061Z,0
2023-12-02T01:55:33.355Z,0
2023-12-02T01:56:47.649Z,0
2023-12-02T01:58:01.942Z,0
2023-12-02T01:59:16.236Z,0
2023-12-02T02:00:29.546Z,0
2023-12-02T02:01:43.839Z,0
2023-12-02T02:02:58.133Z,0
2023-12-02T02:04:12.427Z,0
2023-12-02T02:05:26.721Z,0
2023-12-02T02:06:41.015Z,0
2023-12-02T02:07:55.309Z,0
2023-12-02T02:09:09.603Z,0
2023-12-02T02:10:23.870Z,0
2023-12-02T02:11:38.190Z,0
2023-12-02T02:12:52.484Z,0
2023-12-02T02:14:06.777Z,0
2023-12-02T02:15:21.071Z,0
2023-12-02T02:16:34.381Z,0
2023-12-02T02:17:48.675Z,0
2023-12-02T02:19:02.969Z,0
2023-12-02T02:20:17.263Z,0
2023-12-02T02:21:31.557Z,0
2023-12-02T02:22:45.850Z,0
2023-12-02T02:24:00.144Z,0
2023-12-02T02:25:14.438Z,0
2023-12-02T02:26:28.731Z,0
2023-12-02T02:27:43.025Z,0
2023-12-02T02:28:57.319Z,0
2023-12-02T02:30:11.613Z,0
2023-12-02T02:31:25.906Z,0
2023-12-02T02:32:39.216Z,0
2023-12-02T02:33:53.510Z,0
2023-12-02T02:35:07.803Z,0
2023-12-02T02:36:22.097Z,0
2023-12-02T02:37:36.391Z,0
2023-12-02T02:38:50.684Z,0
2023-12-02T02:40:04.979Z,0
2023-12-02T02:41:19.272Z,0
2023-12-02T02:42:33.566Z,0
2023-12-02T02:43:47.860Z,0
2023-12-02T02:45:02.153Z,0
2023-12-02T02:46:16.447Z,0
2023-12-02T02:47:30.741Z,0
2023-12-02T02:48:44.050Z,0
2023-12-02T02:49:58.344Z,0
2023-12-02T02:51:12.638Z,0
2023-12-02T02:52:26.932Z,0
2023-12-02T02:53:41.225Z,0
2023-12-02T02:54:55.519Z,0
2023-12-02T02:56:09.813Z,0
2023-12-02T02:57:24.107Z,0
2023-12-02T02:58:38.401Z,0
2023-12-02T02:59:52.694Z,0
2023-12-02T03:01:06.988Z,0
2023-12-02T03:02:21.282Z,0
2023-12-02T03:03:35.576Z,0
2023-12-02T03:04:48.885Z,0
2023-12-02T03:06:03.179Z,0
2023-12-02T03:07:17.473Z,0
2023-12-02T03:08:31.766Z,0
2023-12-02T03:09:46.060Z,0
2023-12-02T03:11:00.354Z,0
2023-12-02T03:12:14.648Z,0
2023-12-02T03:13:28.941Z,0
2023-12-02T03:14:43.235Z,0
2023-12-02T03:15:57.528Z,0
2023-12-02T03:17:11.822Z,0
2023-12-02T03:18:26.116Z,0
2023-12-02T03:19:40.409Z,0
2023-12-02T03:20:53.719Z,0
2023-12-02T03:22:08.013Z,0
2023-12-02T03:23:22.307Z,0
2023-12-02T03:24:36.600Z,0
2023-12-02T03:25:50.894Z,0
2023-12-02T03:27:05.188Z,0
2023-12-02T03:28:19.482Z,0
2023-12-02T03:29:33.775Z,0
2023-12-02T03:30:48.069Z,0
2023-12-02T03:32:02.363Z,0
2023-12-02T03:33:16.657Z,0
2023-12-02T03:34:30.951Z,0
2023-12-02T03:35:45.244Z,0
2023-12-02T03:36:58.554Z,0
2023-12-02T03:38:12.848Z,0
2023-12-02T03:39:27.141Z,0
2023-12-02T03:40:41.435Z,0
2023-12-02T03:41:55.729Z,0
2023-12-02T03:43:10.022Z,0
2023-12-02T03:44:24.316Z,0
2023-12-02T03:45:38.610Z,0
2023-12-02T03:46:52.904Z,0
2023-12-02T03:48:07.197Z,0
2023-12-02T03:49:21.491Z,0
2023-12-02T03:50:35.785Z,0
2023-12-02T03:51:50.078Z,0
2023-12-02T03:53:03.388Z,0
2023-12-02T03:54:17.682Z,0
2023-12-02T03:55:31.976Z,0
2023-12-02T03:56:46.269Z,0
2023-12-02T03:58:00.563Z,0
2023-12-02T03:59:14.857Z,0
2023-12-02T04:00:29.150Z,0
2023-12-02T04:01:43.444Z,0
2023-12-02T04:02:57.737Z,0
2023-12-02T04:04:12.031Z,0
2023-12-02T04:05:26.325Z,0
2023-12-02T04:06:40.619Z,0
2023-12-02T04:07:54.914Z,0
2023-12-02T04:09:08.223Z,0
2023-12-02T04:10:22.517Z,0
2023-12-02T04:11:36.811Z,0
2023-12-02T04:12:51.104Z,0
2023-12-02T04:14:05.398Z,0
2023-12-02T04:15:19.693Z,0
2023-12-02T04:16:33.987Z,0
2023-12-02T04:17:48.280Z,0
2023-12-02T04:19:02.574Z,0
2023-12-02T04:20:16.868Z,0
2023-12-02T04:21:31.161Z,0
2023-12-02T04:22:45.455Z,0
2023-12-02T04:23:59.749Z,0
2023-12-02T04:25:13.058Z,0
2023-12-02T04:26:27.352Z,0
2023-12-02T04:27:41.646Z,0
2023-12-02T04:28:55.940Z,0
2023-12-02T04:30:10.234Z,0
2023-12-02T04:31:24.527Z,0
2023-12-02T04:32:37.842Z,0
2023-12-02T04:33:52.136Z,0
2023-12-02T04:35:06.430Z,0
2023-12-02T04:36:20.723Z,0
2023-12-02T04:37:35.017Z,0
2023-12-02T04:38:49.311Z,0
2023-12-02T04:40:03.605Z,0
2023-12-02T04:41:17.898Z,0
2023-12-02T04:42:32.192Z,0
2023-12-02T04:43:46.486Z,0
2023-12-02T04:45:00.779Z,0
2023-12-02T04:46:15.074Z,0
2023-12-02T04:47:29.368Z,0
2023-12-02T04:48:42.678Z,0
2023-12-02T04:49:56.972Z,0
2023-12-02T04:51:11.265Z,0
2023-12-02T04:52:25.559Z,0
2023-12-02T04:53:39.853Z,0
2023-12-02T04:54:54.146Z,0
2023-12-02T04:56:08.440Z,0
2023-12-02T04:57:22.734Z,0
2023-12-02T04:58:37.027Z,0
2023-12-02T04:59:51.321Z,0
2023-12-02T05:01:05.615Z,0
2023-12-02T05:02:19.909Z,0
2023-12-02T05:03:34.202Z,0
2023-12-02T05:04:47.512Z,0
2023-12-02T05:06:01.806Z,0
2023-12-02T05:07:16.099Z,0
2023-12-02T05:08:30.393Z,0
2023-12-02T05:09:44.687Z,0
2023-12-02T05:10:58.981Z,0
2023-12-02T05:12:13.274Z,0
2023-12-02T05:13:27.568Z,0
2023-12-02T05:14:41.862Z,0
2023-12-02T05:15:56.156Z,0
2023-12-02T05:17:10.449Z,0
2023-12-02T05:18:24.743Z,0
2023-12-02T05:19:39.037Z,0
2023-12-02T05:20:52.346Z,0
2023-12-02T05:22:06.641Z,0
2023-12-02T05:23:20.934Z,0
2023-12-02T05:24:35.228Z,0
2023-12-02T05:25:49.522Z,0
2023-12-02T05:27:03.815Z,0
2023-12-02T05:28:18.109Z,0
2023-12-02T05:29:32.403Z,0
2023-12-02T05:30:46.697Z,0
2023-12-02T05:32:00.991Z,0
2023-12-02T05:33:15.284Z,0
2023-12-02T05:34:29.578Z,0
2023-12-02T05:35:43.872Z,0
2023-12-02T05:36:57.181Z,0
2023-12-02T05:38:11.475Z,0
2023-12-02T05:39:25.752Z,0
2023-12-02T05:40:40.062Z,0
2023-12-02T05:41:54.356Z,0
2023-12-02T05:43:08.650Z,0
2023-12-02T05:44:22.944Z,0
2023-12-02T05:45:37.238Z,0
2023-12-02T05:46:51.531Z,0
2023-12-02T05:48:05.825Z,0
2023-12-02T05:49:20.119Z,0
2023-12-02T05:50:34.412Z,0
2023-12-02T05:51:48.706Z,0
2023-12-02T05:53:02.016Z,0
2023-12-02T05:54:16.310Z,0
2023-12-02T05:55:30.603Z,0
2023-12-02T05:56:44.897Z,0
2023-12-02T05:57:59.191Z,0
2023-12-02T05:59:13.484Z,0
2023-12-02T06:00:27.778Z,0
2023-12-02T06:01:42.072Z,0
2023-12-02T06:02:56.365Z,0
2023-12-02T06:04:10.659Z,0
2023-12-02T06:05:24.953Z,0
2023-12-02T06:06:39.247Z,0
2023-12-02T06:07:53.541Z,0
2023-12-02T06:09:06.851Z,0
2023-12-02T06:10:21.145Z,0
2023-12-02T06:11:35.438Z,0
2023-12-02T06:12:49.732Z,0
2023-12-02T06:14:04.026Z,0
2023-12-02T06:15:18.320Z,0
2023-12-02T06:16:32.614Z,0
2023-12-02T06:17:46.908Z,0
2023-12-02T06:19:01.202Z,0
2023-12-02T06:20:15.441Z,0
2023-12-02T06:21:29.692Z,0
2023-12-02T06:22:43.932Z,0
2023-12-02T06:23:58.172Z,0
2023-12-02T06:25:11.427Z,0
2023-12-02T06:26:25.668Z,0
2023-12-02T06:27:39.907Z,0
2023-12-02T06:28:54.147Z,0
2023-12-02T06:30:08.387Z,0
2023-12-02T06:31:22.626Z,0
2023-12-02T06:32:36.866Z,0
2023-12-02T06:33:51.106Z,0
2023-12-02T06:35:05.346Z,0
2023-12-02T06:36:19.586Z,0
2023-12-02T06:37:33.826Z,0
2023-12-02T06:38:48.065Z,0
2023-12-02T06:40:02.305Z,0
2023-12-02T06:41:15.561Z,0
2023-12-02T06:42:29.801Z,0
2023-12-02T06:43:44.041Z,0
2023-12-02T06:44:58.281Z,0
2023-12-02T06:46:12.521Z,0
2023-12-02T06:47:26.761Z,0
2023-12-02T06:48:41.000Z,0
2023-12-02T06:49:55.240Z,0
2023-12-02T06:51:09.480Z,0
2023-12-02T06:52:23.719Z,0
2023-12-02T06:53:37.959Z,5
2023-12-02T06:54:52.199Z,5
2023-12-02T06:56:06.439Z,5
2023-12-02T06:57:19.694Z,5
2023-12-02T06:58:33.935Z,5
2023-12-02T06:59:48.174Z,5
2023-12-02T07:01:02.414Z,5
2023-12-02T07:02:16.654Z,5
2023-12-02T07:03:30.894Z,5
2023-12-02T07:04:45.134Z,5
2023-12-02T07:05:59.374Z,11
2023-12-02T07:07:13.615Z,11
2023-12-02T07:08:27.855Z,11
2023-12-02T07:09:42.094Z,11
2023-12-02T07:10:56.334Z,11
2023-12-02T07:12:10.574Z,11
2023-12-02T07:13:23.829Z,16
2023-12-02T07:14:38.069Z,16
2023-12-02T07:15:52.309Z,16
2023-12-02T07:17:06.548Z,16
2023-12-02T07:18:20.788Z,16
2023-12-02T07:19:35.028Z,16
2023-12-02T07:20:49.268Z,16
2023-12-02T07:22:03.508Z,16
2023-12-02T07:23:17.747Z,16
2023-12-02T07:24:31.987Z,22
2023-12-02T07:25:46.227Z,22
2023-12-02T07:27:00.466Z,22
2023-12-02T07:28:14.706Z,28
2023-12-02T07:29:27.962Z,28
2023-12-02T07:30:42.202Z,28
2023-12-02T07:31:56.442Z,28
2023-12-02T07:33:10.682Z,33
2023-12-02T07:34:24.922Z,33
2023-12-02T07:35:39.162Z,33
2023-12-02T07:36:53.402Z,33
2023-12-02T07:38:07.641Z,33
2023-12-02T07:39:21.881Z,33
2023-12-02T07:40:36.121Z,39
2023-12-02T07:41:50.361Z,39
2023-12-02T07:43:04.600Z,39
2023-12-02T07:44:18.840Z,39
2023-12-02T07:45:32.096Z,39
2023-12-02T07:46:46.335Z,39
2023-12-02T07:48:00.575Z,39
2023-12-02T07:49:14.815Z,39
2023-12-02T07:50:29.054Z,39
2023-12-02T07:51:43.294Z,39
2023-12-02T07:52:57.534Z,39
2023-12-02T07:54:11.774Z,39
2023-12-02T07:55:26.013Z,39
2023-12-02T07:56:40.253Z,39
2023-12-02T07:57:54.493Z,45
2023-12-02T07:59:08.732Z,45
2023-12-02T08:00:22.972Z,45
2023-12-02T08:01:36.228Z,45
2023-12-02T08:02:50.468Z,45
2023-12-02T08:04:04.708Z,45
2023-12-02T08:05:18.947Z,45
2023-12-02T08:06:33.187Z,45
2023-12-02T08:07:47.427Z,50
2023-12-02T08:09:01.666Z,50
2023-12-02T08:10:15.906Z,56
2023-12-02T08:11:30.146Z,56
2023-12-02T08:12:44.386Z,61
2023-12-02T08:15:12.865Z,67
2023-12-02T08:16:27.105Z,73
2023-12-02T08:17:40.361Z,73
2023-12-02T08:18:54.601Z,78
2023-12-02T08:20:08.840Z,78
2023-12-02T08:21:23.080Z,78
2023-12-02T08:22:37.320Z,78
2023-12-02T08:23:51.560Z,84
2023-12-02T08:25:05.800Z,84
2023-12-02T08:26:20.039Z,90
2023-12-02T08:27:34.279Z,90
2023-12-02T08:28:48.519Z,90
2023-12-02T08:31:16.998Z,95
2023-12-02T08:32:31.238Z,95
2023-12-02T08:33:44.494Z,95
2023-12-02T08:34:58.734Z,101
2023-12-02T08:36:12.974Z,95
2023-12-02T08:37:27.213Z,95
2023-12-02T08:38:41.453Z,95
2023-12-02T08:39:55.693Z,95
2023-12-02T08:41:08.954Z,101
2023-12-02T08:42:23.193Z,106
2023-12-02T08:43:37.433Z,112
2023-12-02T08:44:51.673Z,112
2023-12-02T08:46:05.913Z,118
2023-12-02T08:47:20.152Z,118
2023-12-02T08:48:34.392Z,123
2023-12-02T08:49:48.632Z,123
2023-12-02T08:51:02.871Z,123
2023-12-02T08:53:31.351Z,123
2023-12-02T08:54:45.591Z,129
2023-12-02T08:55:59.831Z,135
2023-12-02T08:57:13.086Z,140
2023-12-02T08:58:27.326Z,140
2023-12-02T08:59:41.566Z,146
2023-12-02T09:00:55.805Z,151
2023-12-02T09:02:10.045Z,151
2023-12-02T09:03:24.285Z,151
2023-12-02T09:04:38.524Z,163
2023-12-02T09:05:52.764Z,168
2023-12-02T09:07:07.004Z,168
2023-12-02T09:08:21.244Z,163
2023-12-02T09:09:35.483Z,157
2023-12-02T09:10:49.723Z,157
2023-12-02T09:12:03.962Z,151
2023-12-02T09:13:17.218Z,157
2023-12-02T09:14:31.458Z,151
2023-12-02T09:15:45.697Z,157
2023-12-02T09:16:59.937Z,163
2023-12-02T09:18:14.177Z,157
2023-12-02T09:19:28.416Z,151
2023-12-02T09:20:42.656Z,151
2023-12-02T09:21:56.896Z,157
2023-12-02T09:23:11.135Z,163
2023-12-02T09:24:25.375Z,163
2023-12-02T09:25:39.614Z,168
2023-12-02T09:26:53.854Z,168
2023-12-02T09:28:08.094Z,163
2023-12-02T09:29:21.349Z,157
2023-12-02T09:30:35.589Z,163
2023-12-02T09:31:49.828Z,174
2023-12-02T09:33:04.068Z,180
2023-12-02T09:34:18.307Z,180
2023-12-02T09:35:32.547Z,185
2023-12-02T09:36:46.786Z,180
2023-12-02T09:38:01.026Z,180
2023-12-02T09:39:15.266Z,180
2023-12-02T09:40:29.505Z,180
2023-12-02T09:41:43.745Z,185
2023-12-02T09:42:57.984Z,185
2023-12-02T09:44:12.224Z,196
2023-12-02T09:45:25.479Z,202
2023-12-02T09:46:39.719Z,213
2023-12-02T09:47:53.958Z,208
2023-12-02T09:49:08.198Z,208
2023-12-02T09:50:22.427Z,208
2023-12-02T09:51:36.677Z,208
2023-12-02T09:52:50.917Z,208
2023-12-02T09:54:05.156Z,208
2023-12-02T09:55:19.396Z,208
2023-12-02T09:56:33.635Z,208
2023-12-02T09:57:47.875Z,208
2023-12-02T09:59:02.114Z,208
2023-12-02T10:00:16.354Z,213
2023-12-02T10:01:29.609Z,219
2023-12-02T10:02:43.849Z,225
2023-12-02T10:03:58.088Z,219
2023-12-02T10:05:12.328Z,213
2023-12-02T10:06:26.567Z,213
2023-12-02T10:07:40.807Z,219
2023-12-02T10:08:55.046Z,219
2023-12-02T10:10:09.286Z,225
2023-12-02T10:11:23.525Z,219
2023-12-02T10:12:37.765Z,213
2023-12-02T10:13:52.004Z,213
2023-12-02T10:15:06.244Z,213
2023-12-02T10:16:20.483Z,208
2023-12-02T10:17:33.739Z,208
2023-12-02T10:18:47.979Z,208
2023-12-02T10:20:02.219Z,208
2023-12-02T10:21:16.458Z,196
2023-12-02T10:22:30.698Z,191
2023-12-02T10:23:44.937Z,196
2023-12-02T10:24:59.176Z,202
2023-12-02T10:26:13.416Z,202
2023-12-02T10:27:27.655Z,196
2023-12-02T10:28:41.895Z,196
2023-12-02T10:29:56.134Z,202
2023-12-02T10:31:10.373Z,196
2023-12-02T10:32:24.613Z,202
2023-12-02T10:33:37.868Z,202
2023-12-02T10:34:52.108Z,196
2023-12-02T10:36:06.347Z,185
2023-12-02T10:37:20.586Z,180
2023-12-02T10:38:34.826Z,174
2023-12-02T10:39:49.065Z,174
2023-12-02T10:41:03.304Z,185
2023-12-02T10:42:17.544Z,191
2023-12-02T10:43:31.783Z,196
2023-12-02T10:44:46.023Z,202
2023-12-02T10:46:00.262Z,191
2023-12-02T10:47:14.501Z,191
2023-12-02T10:48:28.741Z,191
2023-12-02T10:49:41.996Z,202
2023-12-02T10:50:56.235Z,202
2023-12-02T10:52:10.475Z,196
2023-12-02T10:53:24.714Z,196
2023-12-02T10:54:38.954Z,196
2023-12-02T10:55:53.193Z,196
2023-12-02T10:57:07.433Z,196
2023-12-02T10:58:21.672Z,196
2023-12-02T10:59:35.911Z,191
2023-12-02T11:00:50.151Z,185
2023-12-02T11:02:04.390Z,185
2023-12-02T11:03:18.629Z,174
2023-12-02T11:04:32.869Z,163
2023-12-02T11:05:46.125Z,157
2023-12-02T11:07:00.364Z,157
2023-12-02T11:08:14.603Z,157
2023-12-02T11:09:28.843Z,163
2023-12-02T11:10:43.082Z,168
2023-12-02T11:11:57.321Z,168
2023-12-02T11:13:11.561Z,168
2023-12-02T11:14:25.800Z,180
2023-12-02T11:15:40.040Z,168
2023-12-02T11:16:54.279Z,168
2023-12-02T11:18:08.519Z,174
2023-12-02T11:19:22.758Z,191
2023-12-02T11:20:36.998Z,196
2023-12-02T11:21:50.254Z,208
2023-12-02T11:23:04.493Z,208
2023-12-02T11:24:18.732Z,196
2023-12-02T11:25:32.973Z,185
2023-12-02T11:26:47.212Z,180
2023-12-02T11:28:01.452Z,185
2023-12-02T11:29:15.674Z,185
2023-12-02T11:30:29.931Z,180
2023-12-02T11:31:44.170Z,185
2023-12-02T11:32:58.409Z,191
2023-12-02T11:34:12.649Z,191
2023-12-02T11:35:26.888Z,185
2023-12-02T11:36:41.128Z,174
2023-12-02T11:37:54.384Z,157
2023-12-02T11:39:08.623Z,151
2023-12-02T11:40:22.863Z,157
2023-12-02T11:41:37.102Z,157
2023-12-02T11:42:51.342Z,151
2023-12-02T11:44:05.581Z,146
2023-12-02T11:45:19.809Z,140
2023-12-02T11:46:34.060Z,146
2023-12-02T11:47:48.300Z,146
2023-12-02T11:49:02.539Z,151
2023-12-02T11:50:16.779Z,151
2023-12-02T11:51:31.018Z,151
2023-12-02T11:52:45.258Z,151
2023-12-02T11:53:58.514Z,151
2023-12-02T11:55:12.753Z,146
2023-12-02T11:56:26.994Z,146
2023-12-02T11:57:41.233Z,151
2023-12-02T11:58:55.473Z,157
2023-12-02T12:00:09.713Z,157
2023-12-02T12:01:23.952Z,151
2023-12-02T12:02:38.192Z,151
2023-12-02T12:03:52.431Z,151
2023-12-02T12:05:06.671Z,157
2023-12-02T12:06:20.910Z,163
2023-12-02T12:07:35.150Z,163
2023-12-02T12:08:49.390Z,163
2023-12-02T12:10:02.645Z,163
2023-12-02T12:11:16.885Z,163
2023-12-02T12:12:31.124Z,168
2023-12-02T12:13:45.364Z,174
2023-12-02T12:14:59.603Z,180
2023-12-02T12:16:13.843Z,180
2023-12-02T12:17:28.083Z,180
2023-12-02T12:18:42.322Z,180
2023-12-02T12:19:56.562Z,168
2023-12-02T12:21:10.801Z,163
2023-12-02T12:22:25.041Z,157
2023-12-02T12:23:39.281Z,157
2023-12-02T12:24:53.520Z,151
2023-12-02T12:26:06.776Z,151
2023-12-02T12:27:21.015Z,151
2023-12-02T12:28:35.255Z,146
2023-12-02T12:29:49.494Z,146
2023-12-02T12:31:03.734Z,146
2023-12-02T12:32:17.974Z,146
2023-12-02T12:33:32.213Z,146
2023-12-02T12:34:46.453Z,146
2023-12-02T12:36:00.693Z,146
2023-12-02T12:37:14.932Z,146
2023-12-02T12:38:29.172Z,146
2023-12-02T12:39:43.411Z,146
2023-12-02T12:40:57.651Z,140
2023-12-02T12:42:10.907Z,140
2023-12-02T12:44:39.386Z,140
2023-12-02T12:45:53.626Z,140
2023-12-02T12:47:07.865Z,146
2023-12-02T12:48:22.105Z,135
2023-12-02T12:49:35.366Z,135
2023-12-02T12:50:49.595Z,135
2023-12-02T12:52:03.845Z,129
2023-12-02T12:53:18.085Z,129
2023-12-02T12:54:32.324Z,129
2023-12-02T12:55:46.564Z,129
2023-12-02T12:57:00.803Z,129
2023-12-02T12:58:15.041Z,135
2023-12-02T12:59:29.282Z,135
2023-12-02T13:00:43.522Z,140
2023-12-02T13:01:57.762Z,140
2023-12-02T13:03:12.002Z,140
2023-12-02T13:04:26.241Z,140
2023-12-02T13:05:39.497Z,135
2023-12-02T13:06:53.736Z,135
2023-12-02T13:08:07.976Z,135
2023-12-02T13:09:22.216Z,146
2023-12-02T13:10:36.455Z,140
2023-12-02T13:11:50.695Z,140
2023-12-02T13:13:04.926Z,140
2023-12-02T13:14:19.174Z,135
2023-12-02T13:15:33.414Z,135
2023-12-02T13:16:47.653Z,129
2023-12-02T13:18:01.893Z,129
2023-12-02T13:19:16.132Z,123
2023-12-02T13:20:30.367Z,118
2023-12-02T13:21:43.628Z,112
2023-12-02T13:22:57.867Z,112
2023-12-02T13:24:12.107Z,101
2023-12-02T13:25:26.347Z,95
2023-12-02T13:26:40.586Z,95
2023-12-02T13:27:54.826Z,95
2023-12-02T13:29:09.065Z,90
2023-12-02T13:30:23.305Z,90
2023-12-02T13:31:37.545Z,84
2023-12-02T13:32:51.784Z,84
2023-12-02T13:34:06.024Z,78
2023-12-02T13:35:20.264Z,78
2023-12-02T13:36:34.503Z,78
2023-12-02T13:37:47.759Z,78
2023-12-02T13:39:01.998Z,73
2023-12-02T13:40:16.238Z,73
2023-12-02T13:41:30.462Z,73
2023-12-02T13:42:44.717Z,73
2023-12-02T13:43:58.957Z,73
2023-12-02T13:45:13.196Z,67
2023-12-02T13:46:27.436Z,67
2023-12-02T13:47:41.676Z,73
2023-12-02T13:48:55.915Z,78
2023-12-02T13:50:10.155Z,78
2023-12-02T13:51:24.395Z,73
2023-12-02T13:52:38.627Z,67
2023-12-02T13:53:51.890Z,61
2023-12-02T13:55:06.129Z,56
2023-12-02T13:56:20.369Z,50
2023-12-02T13:57:34.609Z,50
2023-12-02T13:58:48.849Z,50
2023-12-02T14:00:03.088Z,45
2023-12-02T14:01:17.328Z,39
2023-12-02T14:02:31.567Z,39
2023-12-02T14:03:45.807Z,33
2023-12-02T14:05:00.047Z,33
2023-12-02T14:06:14.286Z,33
2023-12-02T14:07:28.526Z,33
2023-12-02T14:08:42.766Z,33
2023-12-02T14:09:56.013Z,33
2023-12-02T14:11:10.261Z,28
2023-12-02T14:12:24.501Z,28
2023-12-02T14:13:38.740Z,28
2023-12-02T14:14:52.980Z,28
2023-12-02T14:16:07.220Z,28
2023-12-02T14:17:21.459Z,28
2023-12-02T14:18:35.699Z,22
2023-12-02T14:19:49.939Z,28
2023-12-02T14:21:04.178Z,28
2023-12-02T14:22:18.418Z,28
2023-12-02T14:23:32.659Z,22
2023-12-02T14:24:46.898Z,22
2023-12-02T14:26:00.154Z,22
2023-12-02T14:28:28.633Z,16
2023-12-02T14:29:42.873Z,16
2023-12-02T14:30:57.113Z,11
2023-12-02T14:32:11.353Z,11
2023-12-02T14:33:25.592Z,11
2023-12-02T14:34:39.832Z,11
2023-12-02T14:35:54.072Z,11
2023-12-02T14:37:08.311Z,11
2023-12-02T14:38:22.552Z,11
2023-12-02T14:39:36.792Z,11
2023-12-02T14:40:51.032Z,5
2023-12-02T14:42:04.287Z,5
2023-12-02T14:43:18.527Z,5
2023-12-02T14:44:32.767Z,5
2023-12-02T14:45:47.006Z,5
2023-12-02T14:47:01.246Z,5
2023-12-02T14:48:15.486Z,5
2023-12-02T14:49:29.725Z,5
2023-12-02T14:50:43.965Z,5
2023-12-02T14:51:58.205Z,5
2023-12-02T14:53:12.445Z,5
2023-12-02T14:54:26.685Z,5
2023-12-02T14:55:40.925Z,0
2023-12-02T14:56:55.165Z,0
2023-12-02T14:58:08.421Z,0
2023-12-02T14:59:22.660Z,0
2023-12-02T15:00:36.900Z,0
2023-12-02T15:01:51.140Z,0
2023-12-02T15:03:05.380Z,0
2023-12-02T15:04:19.619Z,0
2023-12-02T15:05:33.859Z,0
2023-12-02T15:06:48.099Z,0
2023-12-02T15:08:02.338Z,0
2023-12-02T15:09:16.578Z,0
2023-12-02T15:10:30.818Z,0
2023-12-02T15:11:45.058Z,0
2023-12-02T15:12:59.298Z,0
2023-12-02T15:14:12.553Z,0
2023-12-02T15:15:26.793Z,0
2023-12-02T15:16:41.033Z,0
2023-12-02T15:17:55.273Z,0
2023-12-02T15:19:09.512Z,0
2023-12-02T15:20:23.752Z,0
2023-12-02T15:21:37.992Z,0
2023-12-02T15:22:52.232Z,0
2023-12-02T15:24:06.472Z,0
2023-12-02T15:25:20.712Z,0
2023-12-02T15:26:34.952Z,0
2023-12-02T15:27:49.192Z,0
2023-12-02T15:29:03.431Z,0
2023-12-02T15:30:16.687Z,0
2023-12-02T15:31:30.927Z,0
2023-12-02T15:32:45.166Z,0
2023-12-02T15:33:59.406Z,0
2023-12-02T15:35:13.646Z,0
2023-12-02T15:36:27.886Z,0
2023-12-02T15:37:42.125Z,0
2023-12-02T15:38:56.420Z,0
2023-12-02T15:40:10.713Z,0
2023-12-02T15:41:24.964Z,0
2023-12-02T15:42:39.205Z,0
2023-12-02T15:43:53.499Z,0
2023-12-02T15:45:07.793Z,0
2023-12-02T15:46:21.103Z,0
2023-12-02T15:47:35.397Z,0
2023-12-02T15:48:49.690Z,0
2023-12-02T15:50:03.984Z,0
2023-12-02T15:51:18.277Z,0
2023-12-02T15:52:32.571Z,0
2023-12-02T15:53:46.865Z,0
2023-12-02T15:55:01.159Z,0
2023-12-02T15:56:15.452Z,0
2023-12-02T15:57:29.746Z,0
2023-12-02T15:58:44.040Z,0
2023-12-02T15:59:58.333Z,0
2023-12-02T16:01:12.627Z,0
2023-12-02T16:02:25.937Z,0
2023-12-02T16:03:40.231Z,0
2023-12-02T16:04:54.524Z,0
2023-12-02T16:06:08.818Z,0
2023-12-02T16:07:23.112Z,0
2023-12-02T16:08:37.406Z,0
2023-12-02T16:09:51.699Z,0
2023-12-02T16:11:05.993Z,0
2023-12-02T16:12:20.287Z,0
2023-12-02T16:13:34.580Z,0
2023-12-02T16:14:48.858Z,0
2023-12-02T16:16:03.168Z,0
2023-12-02T16:17:17.462Z,0
2023-12-02T16:18:30.772Z,0
2023-12-02T16:19:45.065Z,0
2023-12-02T16:20:59.360Z,0
2023-12-02T16:22:13.654Z,0
2023-12-02T16:23:27.947Z,0
2023-12-02T16:24:42.241Z,0
2023-12-02T16:25:56.535Z,0
2023-12-02T16:27:10.829Z,0
2023-12-02T16:28:25.116Z,0
2023-12-02T16:29:39.416Z,0
2023-12-02T16:30:53.710Z,0
2023-12-02T16:32:08.003Z,0
2023-12-02T16:33:22.297Z,0
2023-12-02T16:34:35.607Z,0
2023-12-02T16:35:49.900Z,0
2023-12-02T16:37:04.194Z,0
2023-12-02T16:38:18.488Z,0
2023-12-02T16:39:32.782Z,0
2023-12-02T16:40:47.076Z,0
2023-12-02T16:42:01.370Z,0
2023-12-02T16:43:15.664Z,0
2023-12-02T16:44:29.957Z,0
2023-12-02T16:45:44.251Z,0
2023-12-02T16:46:58.545Z,0
2023-12-02T16:48:12.839Z,0
2023-12-02T16:49:27.132Z,0
2023-12-02T16:50:40.442Z,0
2023-12-02T16:51:54.736Z,0
2023-12-02T16:53:09.029Z,0
2023-12-02T16:54:23.323Z,0
2023-12-02T16:55:37.617Z,0
2023-12-02T16:56:51.910Z,0
2023-12-02T16:58:05.225Z,0
2023-12-02T16:59:19.519Z,0
2023-12-02T17:00:33.813Z,0
2023-12-02T17:01:48.106Z,0
2023-12-02T17:03:02.400Z,0
2023-12-02T17:04:16.694Z,0
2023-12-02T17:05:30.987Z,0
2023-12-02T17:06:45.281Z,0
2023-12-02T17:07:59.574Z,0
2023-12-02T17:09:13.868Z,0
2023-12-02T17:10:28.162Z,0
2023-12-02T17:11:42.456Z,0
2023-12-02T17:12:56.750Z,0
2023-12-02T17:14:10.059Z,0
2023-12-02T17:15:24.353Z,0
2023-12-02T17:16:38.647Z,0
2023-12-02T17:17:52.940Z,0
2023-12-02T17:19:07.234Z,0
2023-12-02T17:20:21.527Z,0
2023-12-02T17:21:35.822Z,0
2023-12-02T17:22:50.115Z,0
2023-12-02T17:24:04.409Z,0
2023-12-02T17:25:18.703Z,0
2023-12-02T17:26:32.996Z,0
2023-12-02T17:27:47.290Z,0
2023-12-02T17:29:01.583Z,0
2023-12-02T17:30:14.893Z,0
2023-12-02T17:31:29.187Z,0
2023-12-02T17:32:43.481Z,0
2023-12-02T17:33:57.775Z,0
2023-12-02T17:35:12.068Z,0
2023-12-02T17:36:26.362Z,0
2023-12-02T17:37:40.656Z,0
2023-12-02T17:38:54.949Z,0
2023-12-02T17:40:09.243Z,0
2023-12-02T17:41:23.537Z,0
2023-12-02T17:42:37.831Z,0
2023-12-02T17:43:52.124Z,0
2023-12-02T17:45:06.418Z,0
2023-12-02T17:46:19.728Z,0
2023-12-02T17:47:34.022Z,0
2023-12-02T17:48:48.315Z,0
2023-12-02T17:50:02.609Z,0
2023-12-02T17:51:16.903Z,0
2023-12-02T17:52:31.196Z,0
2023-12-02T17:53:45.490Z,0
2023-12-02T17:54:59.784Z,0
2023-12-02T17:56:14.078Z,0